sensor_id;sensor_type;location;lat;lon;timestamp;temperature;humidity
7564;DHT22;3823;53.586;10.040;2022-08-01T00:01:52;19.60;99.70
7564;DHT22;3823;53.586;10.040;2022-08-01T00:04:18;19.60;99.90
7564;DHT22;3823;53.586;10.040;2022-08-01T00:06:43;19.60;99.90
7564;DHT22;3823;53.586;10.040;2022-08-01T00:09:09;19.60;99.10
7564;DHT22;3823;53.586;10.040;2022-08-01T00:11:34;19.60;99.40
7564;DHT22;3823;53.586;10.040;2022-08-01T00:14:00;19.60;99.50
7564;DHT22;3823;53.586;10.040;2022-08-01T00:16:25;19.60;99.20
7564;DHT22;3823;53.586;10.040;2022-08-01T00:18:51;19.60;99.60
7564;DHT22;3823;53.586;10.040;2022-08-01T00:21:17;19.50;99.50
7564;DHT22;3823;53.586;10.040;2022-08-01T00:23:43;19.50;99.40
7564;DHT22;3823;53.586;10.040;2022-08-01T00:26:11;19.50;99.30
7564;DHT22;3823;53.586;10.040;2022-08-01T00:28:36;19.50;99.30
7564;DHT22;3823;53.586;10.040;2022-08-01T00:31:02;19.60;99.00
7564;DHT22;3823;53.586;10.040;2022-08-01T00:33:27;19.60;98.60
7564;DHT22;3823;53.586;10.040;2022-08-01T00:35:53;19.60;99.40
7564;DHT22;3823;53.586;10.040;2022-08-01T00:38:18;19.60;99.70
7564;DHT22;3823;53.586;10.040;2022-08-01T00:40:44;19.60;98.60
7564;DHT22;3823;53.586;10.040;2022-08-01T00:43:10;19.60;99.10
7564;DHT22;3823;53.586;10.040;2022-08-01T00:45:35;19.50;99.30
7564;DHT22;3823;53.586;10.040;2022-08-01T00:48:01;19.50;99.40
7564;DHT22;3823;53.586;10.040;2022-08-01T00:50:27;19.50;99.90
7564;DHT22;3823;53.586;10.040;2022-08-01T00:52:53;19.40;99.90
7564;DHT22;3823;53.586;10.040;2022-08-01T00:55:20;19.40;99.90
7564;DHT22;3823;53.586;10.040;2022-08-01T00:57:47;19.40;99.70
7564;DHT22;3823;53.586;10.040;2022-08-01T01:00:13;19.50;99.80
7564;DHT22;3823;53.586;10.040;2022-08-01T01:02:39;19.40;99.90
7564;DHT22;3823;53.586;10.040;2022-08-01T01:05:05;19.50;99.90
7564;DHT22;3823;53.586;10.040;2022-08-01T01:08:03;19.50;98.90
7564;DHT22;3823;53.586;10.040;2022-08-01T01:10:43;19.50;98.90
7564;DHT22;3823;53.586;10.040;2022-08-01T01:15:46;19.50;99.20
7564;DHT22;3823;53.586;10.040;2022-08-01T01:18:13;19.40;98.90
7564;DHT22;3823;53.586;10.040;2022-08-01T01:20:52;19.40;99.00
7564;DHT22;3823;53.586;10.040;2022-08-01T01:26:15;19.40;99.60
7564;DHT22;3823;53.586;10.040;2022-08-01T01:29:05;19.40;99.20
7564;DHT22;3823;53.586;10.040;2022-08-01T01:31:36;19.40;99.00
7564;DHT22;3823;53.586;10.040;2022-08-01T01:34:05;19.50;99.50
7564;DHT22;3823;53.586;10.040;2022-08-01T01:36:33;19.50;99.10
7564;DHT22;3823;53.586;10.040;2022-08-01T01:39:00;19.50;99.30
7564;DHT22;3823;53.586;10.040;2022-08-01T01:41:27;19.50;99.80
7564;DHT22;3823;53.586;10.040;2022-08-01T01:43:54;19.50;99.90
7564;DHT22;3823;53.586;10.040;2022-08-01T01:46:23;19.50;99.90
7564;DHT22;3823;53.586;10.040;2022-08-01T01:48:50;19.50;99.70
7564;DHT22;3823;53.586;10.040;2022-08-01T01:51:17;19.40;99.90
7564;DHT22;3823;53.586;10.040;2022-08-01T01:53:45;19.40;99.90
7564;DHT22;3823;53.586;10.040;2022-08-01T01:56:11;19.40;99.90
7564;DHT22;3823;53.586;10.040;2022-08-01T01:58:40;19.50;99.90
7564;DHT22;3823;53.586;10.040;2022-08-01T02:01:07;19.40;99.90
7564;DHT22;3823;53.586;10.040;2022-08-01T02:03:35;19.40;99.90
7564;DHT22;3823;53.586;10.040;2022-08-01T02:06:02;19.40;99.90
7564;DHT22;3823;53.586;10.040;2022-08-01T02:08:30;19.40;99.90
7564;DHT22;3823;53.586;10.040;2022-08-01T02:10:57;19.40;99.90
7564;DHT22;3823;53.586;10.040;2022-08-01T02:13:52;19.40;99.90
7564;DHT22;3823;53.586;10.040;2022-08-01T02:16:19;19.30;99.90
7564;DHT22;3823;53.586;10.040;2022-08-01T02:18:45;19.30;99.90
7564;DHT22;3823;53.586;10.040;2022-08-01T02:21:13;19.30;99.90
7564;DHT22;3823;53.586;10.040;2022-08-01T02:23:42;19.30;99.90
7564;DHT22;3823;53.586;10.040;2022-08-01T02:26:13;19.30;99.90
7564;DHT22;3823;53.586;10.040;2022-08-01T02:28:55;19.30;99.90
7564;DHT22;3823;53.586;10.040;2022-08-01T02:31:22;19.30;99.90
7564;DHT22;3823;53.586;10.040;2022-08-01T02:34:04;19.30;99.90
7564;DHT22;3823;53.586;10.040;2022-08-01T02:36:34;19.40;99.90
7564;DHT22;3823;53.586;10.040;2022-08-01T02:39:09;19.30;99.90
7564;DHT22;3823;53.586;10.040;2022-08-01T02:41:40;19.30;99.90
7564;DHT22;3823;53.586;10.040;2022-08-01T02:44:09;19.20;99.90
7564;DHT22;3823;53.586;10.040;2022-08-01T02:46:42;19.20;99.90
7564;DHT22;3823;53.586;10.040;2022-08-01T02:49:10;19.20;99.90
7564;DHT22;3823;53.586;10.040;2022-08-01T02:51:39;19.20;99.90
7564;DHT22;3823;53.586;10.040;2022-08-01T02:54:07;19.20;99.90
7564;DHT22;3823;53.586;10.040;2022-08-01T02:56:34;19.20;99.90
7564;DHT22;3823;53.586;10.040;2022-08-01T02:59:05;19.10;99.90
7564;DHT22;3823;53.586;10.040;2022-08-01T03:01:34;19.20;99.90
7564;DHT22;3823;53.586;10.040;2022-08-01T03:04:00;19.20;99.90
7564;DHT22;3823;53.586;10.040;2022-08-01T03:06:27;19.20;99.90
7564;DHT22;3823;53.586;10.040;2022-08-01T03:08:54;19.20;99.90
7564;DHT22;3823;53.586;10.040;2022-08-01T03:11:22;19.20;99.90
7564;DHT22;3823;53.586;10.040;2022-08-01T03:13:50;19.20;99.90
7564;DHT22;3823;53.586;10.040;2022-08-01T03:16:18;19.20;99.90
7564;DHT22;3823;53.586;10.040;2022-08-01T03:18:44;19.20;99.90
7564;DHT22;3823;53.586;10.040;2022-08-01T03:21:12;19.20;99.90
7564;DHT22;3823;53.586;10.040;2022-08-01T03:23:40;19.20;99.90
7564;DHT22;3823;53.586;10.040;2022-08-01T03:26:07;19.20;99.90
7564;DHT22;3823;53.586;10.040;2022-08-01T03:28:33;19.10;99.90
7564;DHT22;3823;53.586;10.040;2022-08-01T03:31:01;19.10;99.90
7564;DHT22;3823;53.586;10.040;2022-08-01T03:33:27;19.10;99.90
7564;DHT22;3823;53.586;10.040;2022-08-01T03:35:54;19.10;99.90
7564;DHT22;3823;53.586;10.040;2022-08-01T03:38:23;19.10;99.90
7564;DHT22;3823;53.586;10.040;2022-08-01T03:41:19;19.10;99.90
7564;DHT22;3823;53.586;10.040;2022-08-01T03:44:00;19.10;99.90
7564;DHT22;3823;53.586;10.040;2022-08-01T03:46:32;19.10;99.90
7564;DHT22;3823;53.586;10.040;2022-08-01T03:49:03;19.10;99.90
7564;DHT22;3823;53.586;10.040;2022-08-01T03:51:31;19.10;99.80
7564;DHT22;3823;53.586;10.040;2022-08-01T03:53:59;19.10;99.40
7564;DHT22;3823;53.586;10.040;2022-08-01T03:56:26;19.10;99.90
7564;DHT22;3823;53.586;10.040;2022-08-01T03:58:52;19.10;99.70
7564;DHT22;3823;53.586;10.040;2022-08-01T04:01:19;19.10;99.60
7564;DHT22;3823;53.586;10.040;2022-08-01T04:03:45;19.00;99.90
7564;DHT22;3823;53.586;10.040;2022-08-01T04:06:11;19.00;99.90
7564;DHT22;3823;53.586;10.040;2022-08-01T04:08:39;19.10;99.90
7564;DHT22;3823;53.586;10.040;2022-08-01T04:11:08;19.10;99.90
7564;DHT22;3823;53.586;10.040;2022-08-01T04:13:33;19.10;99.90
7564;DHT22;3823;53.586;10.040;2022-08-01T04:15:59;19.10;99.90
7564;DHT22;3823;53.586;10.040;2022-08-01T04:18:25;19.10;99.80
7564;DHT22;3823;53.586;10.040;2022-08-01T04:20:50;19.10;99.90
7564;DHT22;3823;53.586;10.040;2022-08-01T04:23:18;19.10;99.90
7564;DHT22;3823;53.586;10.040;2022-08-01T04:25:46;19.10;99.90
7564;DHT22;3823;53.586;10.040;2022-08-01T04:28:13;19.10;99.90
7564;DHT22;3823;53.586;10.040;2022-08-01T04:30:43;19.10;99.90
7564;DHT22;3823;53.586;10.040;2022-08-01T04:33:12;19.10;99.90
7564;DHT22;3823;53.586;10.040;2022-08-01T04:35:39;19.10;99.90
7564;DHT22;3823;53.586;10.040;2022-08-01T04:38:07;19.10;99.90
7564;DHT22;3823;53.586;10.040;2022-08-01T04:40:35;19.10;99.90
7564;DHT22;3823;53.586;10.040;2022-08-01T04:43:01;19.10;99.90
7564;DHT22;3823;53.586;10.040;2022-08-01T04:45:27;19.20;99.90
7564;DHT22;3823;53.586;10.040;2022-08-01T04:47:54;19.10;99.70
7564;DHT22;3823;53.586;10.040;2022-08-01T04:50:20;19.10;99.90
7564;DHT22;3823;53.586;10.040;2022-08-01T04:52:49;19.20;99.90
7564;DHT22;3823;53.586;10.040;2022-08-01T04:55:16;19.20;99.90
7564;DHT22;3823;53.586;10.040;2022-08-01T04:57:44;19.20;99.20
7564;DHT22;3823;53.586;10.040;2022-08-01T05:00:10;19.10;99.90
7564;DHT22;3823;53.586;10.040;2022-08-01T05:02:36;19.10;99.90
7564;DHT22;3823;53.586;10.040;2022-08-01T05:05:02;19.10;99.90
7564;DHT22;3823;53.586;10.040;2022-08-01T05:07:28;19.10;99.90
7564;DHT22;3823;53.586;10.040;2022-08-01T05:09:53;19.10;99.80
7564;DHT22;3823;53.586;10.040;2022-08-01T05:12:19;19.10;98.20
7564;DHT22;3823;53.586;10.040;2022-08-01T05:14:45;19.00;98.50
7564;DHT22;3823;53.586;10.040;2022-08-01T05:17:11;18.90;99.90
7564;DHT22;3823;53.586;10.040;2022-08-01T05:19:38;18.90;99.90
7564;DHT22;3823;53.586;10.040;2022-08-01T05:22:06;18.80;99.90
7564;DHT22;3823;53.586;10.040;2022-08-01T05:24:32;18.80;99.90
7564;DHT22;3823;53.586;10.040;2022-08-01T05:26:59;18.80;99.90
7564;DHT22;3823;53.586;10.040;2022-08-01T05:29:25;18.80;99.90
7564;DHT22;3823;53.586;10.040;2022-08-01T05:31:51;18.80;99.90
7564;DHT22;3823;53.586;10.040;2022-08-01T05:34:18;18.90;99.90
7564;DHT22;3823;53.586;10.040;2022-08-01T05:36:44;18.90;99.90
7564;DHT22;3823;53.586;10.040;2022-08-01T05:39:09;18.90;99.90
7564;DHT22;3823;53.586;10.040;2022-08-01T05:41:36;19.00;99.90
7564;DHT22;3823;53.586;10.040;2022-08-01T05:44:02;19.00;99.90
7564;DHT22;3823;53.586;10.040;2022-08-01T05:46:28;18.90;99.90
7564;DHT22;3823;53.586;10.040;2022-08-01T05:48:56;19.00;99.90
7564;DHT22;3823;53.586;10.040;2022-08-01T05:51:22;19.00;99.90
7564;DHT22;3823;53.586;10.040;2022-08-01T05:53:47;19.00;99.90
7564;DHT22;3823;53.586;10.040;2022-08-01T05:56:13;19.10;99.90
7564;DHT22;3823;53.586;10.040;2022-08-01T05:58:38;19.10;98.60
7564;DHT22;3823;53.586;10.040;2022-08-01T06:01:04;19.10;99.80
7564;DHT22;3823;53.586;10.040;2022-08-01T06:03:29;19.20;99.20
7564;DHT22;3823;53.586;10.040;2022-08-01T06:05:57;19.10;97.60
7564;DHT22;3823;53.586;10.040;2022-08-01T06:08:22;19.10;97.30
7564;DHT22;3823;53.586;10.040;2022-08-01T06:10:48;19.10;97.80
7564;DHT22;3823;53.586;10.040;2022-08-01T06:13:14;19.10;97.90
7564;DHT22;3823;53.586;10.040;2022-08-01T06:15:39;19.20;97.40
7564;DHT22;3823;53.586;10.040;2022-08-01T06:18:05;19.20;98.30
7564;DHT22;3823;53.586;10.040;2022-08-01T06:20:31;19.20;97.50
7564;DHT22;3823;53.586;10.040;2022-08-01T06:22:57;19.20;98.00
7564;DHT22;3823;53.586;10.040;2022-08-01T06:25:22;19.40;99.50
7564;DHT22;3823;53.586;10.040;2022-08-01T06:27:48;19.40;97.80
7564;DHT22;3823;53.586;10.040;2022-08-01T06:30:14;19.50;95.50
7564;DHT22;3823;53.586;10.040;2022-08-01T06:32:40;19.40;94.40
7564;DHT22;3823;53.586;10.040;2022-08-01T06:35:06;19.40;93.80
7564;DHT22;3823;53.586;10.040;2022-08-01T06:37:32;19.40;94.00
7564;DHT22;3823;53.586;10.040;2022-08-01T06:40:07;19.30;94.30
7564;DHT22;3823;53.586;10.040;2022-08-01T06:42:33;19.30;94.10
7564;DHT22;3823;53.586;10.040;2022-08-01T06:45:07;19.30;93.90
7564;DHT22;3823;53.586;10.040;2022-08-01T06:47:33;19.50;91.60
7564;DHT22;3823;53.586;10.040;2022-08-01T06:49:59;19.40;92.90
7564;DHT22;3823;53.586;10.040;2022-08-01T06:52:25;19.40;92.60
7564;DHT22;3823;53.586;10.040;2022-08-01T06:54:51;19.40;94.00
7564;DHT22;3823;53.586;10.040;2022-08-01T06:57:16;19.40;92.60
7564;DHT22;3823;53.586;10.040;2022-08-01T06:59:42;19.40;93.30
7564;DHT22;3823;53.586;10.040;2022-08-01T07:02:08;19.50;92.80
7564;DHT22;3823;53.586;10.040;2022-08-01T07:04:34;19.50;93.20
7564;DHT22;3823;53.586;10.040;2022-08-01T07:07:00;19.50;91.60
7564;DHT22;3823;53.586;10.040;2022-08-01T07:09:26;19.50;91.40
7564;DHT22;3823;53.586;10.040;2022-08-01T07:11:52;19.50;92.60
7564;DHT22;3823;53.586;10.040;2022-08-01T07:14:18;19.60;90.30
7564;DHT22;3823;53.586;10.040;2022-08-01T07:16:44;19.60;90.80
7564;DHT22;3823;53.586;10.040;2022-08-01T07:19:10;19.60;89.80
7564;DHT22;3823;53.586;10.040;2022-08-01T07:21:36;19.70;89.50
7564;DHT22;3823;53.586;10.040;2022-08-01T07:24:01;19.70;84.30
7564;DHT22;3823;53.586;10.040;2022-08-01T07:26:27;19.60;84.50
7564;DHT22;3823;53.586;10.040;2022-08-01T07:28:53;19.60;86.30
7564;DHT22;3823;53.586;10.040;2022-08-01T07:31:19;19.50;85.70
7564;DHT22;3823;53.586;10.040;2022-08-01T07:33:44;19.50;86.00
7564;DHT22;3823;53.586;10.040;2022-08-01T07:36:10;19.50;86.30
7564;DHT22;3823;53.586;10.040;2022-08-01T07:38:36;19.50;84.70
7564;DHT22;3823;53.586;10.040;2022-08-01T07:41:01;19.50;87.20
7564;DHT22;3823;53.586;10.040;2022-08-01T07:43:27;19.50;86.50
7564;DHT22;3823;53.586;10.040;2022-08-01T07:45:53;19.60;84.00
7564;DHT22;3823;53.586;10.040;2022-08-01T07:48:18;19.60;81.80
7564;DHT22;3823;53.586;10.040;2022-08-01T07:50:46;19.60;82.90
7564;DHT22;3823;53.586;10.040;2022-08-01T07:53:11;19.60;78.00
7564;DHT22;3823;53.586;10.040;2022-08-01T07:55:37;19.60;81.90
7564;DHT22;3823;53.586;10.040;2022-08-01T07:58:02;19.60;78.10
7564;DHT22;3823;53.586;10.040;2022-08-01T08:00:28;19.60;80.70
7564;DHT22;3823;53.586;10.040;2022-08-01T08:02:54;19.60;82.70
7564;DHT22;3823;53.586;10.040;2022-08-01T08:05:20;19.60;77.50
7564;DHT22;3823;53.586;10.040;2022-08-01T08:07:45;19.60;76.20
7564;DHT22;3823;53.586;10.040;2022-08-01T08:10:11;19.60;73.20
7564;DHT22;3823;53.586;10.040;2022-08-01T08:12:36;19.70;70.00
7564;DHT22;3823;53.586;10.040;2022-08-01T08:15:02;19.70;73.70
7564;DHT22;3823;53.586;10.040;2022-08-01T08:17:31;19.70;69.30
7564;DHT22;3823;53.586;10.040;2022-08-01T08:19:57;19.70;67.40
7564;DHT22;3823;53.586;10.040;2022-08-01T08:22:23;19.80;68.40
7564;DHT22;3823;53.586;10.040;2022-08-01T08:24:48;19.90;64.10
7564;DHT22;3823;53.586;10.040;2022-08-01T08:27:14;19.90;66.00
7564;DHT22;3823;53.586;10.040;2022-08-01T08:29:40;19.90;65.00
7564;DHT22;3823;53.586;10.040;2022-08-01T08:32:07;19.90;62.10
7564;DHT22;3823;53.586;10.040;2022-08-01T08:34:33;19.90;62.40
7564;DHT22;3823;53.586;10.040;2022-08-01T08:36:59;19.90;59.30
7564;DHT22;3823;53.586;10.040;2022-08-01T08:39:25;19.90;59.20
7564;DHT22;3823;53.586;10.040;2022-08-01T08:41:51;20.00;56.40
7564;DHT22;3823;53.586;10.040;2022-08-01T08:44:18;19.90;56.20
7564;DHT22;3823;53.586;10.040;2022-08-01T08:46:50;20.00;54.40
7564;DHT22;3823;53.586;10.040;2022-08-01T08:49:26;20.00;55.10
7564;DHT22;3823;53.586;10.040;2022-08-01T08:51:52;20.00;54.90
7564;DHT22;3823;53.586;10.040;2022-08-01T08:54:21;19.90;53.10
7564;DHT22;3823;53.586;10.040;2022-08-01T08:56:48;19.90;54.60
7564;DHT22;3823;53.586;10.040;2022-08-01T08:59:14;20.20;57.20
7564;DHT22;3823;53.586;10.040;2022-08-01T09:01:41;20.60;49.30
7564;DHT22;3823;53.586;10.040;2022-08-01T09:04:06;20.90;46.90
7564;DHT22;3823;53.586;10.040;2022-08-01T09:06:32;21.30;43.70
7564;DHT22;3823;53.586;10.040;2022-08-01T09:08:59;21.90;42.20
7564;DHT22;3823;53.586;10.040;2022-08-01T09:11:25;22.20;38.70
7564;DHT22;3823;53.586;10.040;2022-08-01T09:14:12;22.60;36.80
7564;DHT22;3823;53.586;10.040;2022-08-01T09:19:16;22.80;29.20
7564;DHT22;3823;53.586;10.040;2022-08-01T09:21:59;23.10;30.40
7564;DHT22;3823;53.586;10.040;2022-08-01T09:24:26;23.30;24.80
7564;DHT22;3823;53.586;10.040;2022-08-01T09:26:53;23.40;24.10
7564;DHT22;3823;53.586;10.040;2022-08-01T09:29:22;23.70;24.50
7564;DHT22;3823;53.586;10.040;2022-08-01T09:31:48;24.10;22.50
7564;DHT22;3823;53.586;10.040;2022-08-01T09:34:28;24.40;21.90
7564;DHT22;3823;53.586;10.040;2022-08-01T09:36:57;24.40;19.80
7564;DHT22;3823;53.586;10.040;2022-08-01T09:39:31;24.50;19.90
7564;DHT22;3823;53.586;10.040;2022-08-01T09:42:01;24.60;16.90
7564;DHT22;3823;53.586;10.040;2022-08-01T09:44:40;24.50;17.20
7564;DHT22;3823;53.586;10.040;2022-08-01T09:47:07;24.50;17.00
7564;DHT22;3823;53.586;10.040;2022-08-01T09:49:35;24.50;17.00
7564;DHT22;3823;53.586;10.040;2022-08-01T09:52:16;24.70;16.90
7564;DHT22;3823;53.586;10.040;2022-08-01T09:54:43;24.90;16.10
7564;DHT22;3823;53.586;10.040;2022-08-01T09:57:14;25.00;14.90
7564;DHT22;3823;53.586;10.040;2022-08-01T09:59:45;25.20;15.00
7564;DHT22;3823;53.586;10.040;2022-08-01T10:02:13;25.30;15.10
7564;DHT22;3823;53.586;10.040;2022-08-01T10:04:51;25.10;14.70
7564;DHT22;3823;53.586;10.040;2022-08-01T10:07:18;25.20;14.80
7564;DHT22;3823;53.586;10.040;2022-08-01T10:09:45;25.30;14.30
7564;DHT22;3823;53.586;10.040;2022-08-01T10:12:16;25.50;13.80
7564;DHT22;3823;53.586;10.040;2022-08-01T10:14:50;25.70;14.70
7564;DHT22;3823;53.586;10.040;2022-08-01T10:17:18;25.90;14.30
7564;DHT22;3823;53.586;10.040;2022-08-01T10:19:44;26.20;13.00
7564;DHT22;3823;53.586;10.040;2022-08-01T10:22:12;26.30;13.60
7564;DHT22;3823;53.586;10.040;2022-08-01T10:24:45;26.40;12.00
7564;DHT22;3823;53.586;10.040;2022-08-01T10:27:14;26.30;12.10
7564;DHT22;3823;53.586;10.040;2022-08-01T10:29:50;25.90;11.80
7564;DHT22;3823;53.586;10.040;2022-08-01T10:32:17;25.70;11.60
7564;DHT22;3823;53.586;10.040;2022-08-01T10:34:44;25.80;11.90
7564;DHT22;3823;53.586;10.040;2022-08-01T10:37:10;25.80;11.50
7564;DHT22;3823;53.586;10.040;2022-08-01T10:39:36;25.70;11.90
7564;DHT22;3823;53.586;10.040;2022-08-01T10:42:06;25.80;12.90
7564;DHT22;3823;53.586;10.040;2022-08-01T10:44:34;26.30;12.10
7564;DHT22;3823;53.586;10.040;2022-08-01T10:47:09;26.50;10.70
7564;DHT22;3823;53.586;10.040;2022-08-01T10:49:48;26.60;10.30
7564;DHT22;3823;53.586;10.040;2022-08-01T10:52:16;26.60;9.40
7564;DHT22;3823;53.586;10.040;2022-08-01T10:54:42;26.70;8.80
7564;DHT22;3823;53.586;10.040;2022-08-01T10:57:07;26.70;7.10
7564;DHT22;3823;53.586;10.040;2022-08-01T10:59:33;26.40;8.10
7564;DHT22;3823;53.586;10.040;2022-08-01T11:02:05;26.30;8.40
7564;DHT22;3823;53.586;10.040;2022-08-01T11:07:07;26.20;7.10
7564;DHT22;3823;53.586;10.040;2022-08-01T11:09:42;26.40;7.80
7564;DHT22;3823;53.586;10.040;2022-08-01T11:12:15;26.50;7.10
7564;DHT22;3823;53.586;10.040;2022-08-01T11:17:35;26.30;8.50
7564;DHT22;3823;53.586;10.040;2022-08-01T11:20:12;26.30;5.90
7564;DHT22;3823;53.586;10.040;2022-08-01T11:28:31;26.10;6.70
7564;DHT22;3823;53.586;10.040;2022-08-01T11:38:40;26.20;6.10
7564;DHT22;3823;53.586;10.040;2022-08-01T11:41:11;26.20;6.10
7564;DHT22;3823;53.586;10.040;2022-08-01T11:52:15;26.20;5.00
7564;DHT22;3823;53.586;10.040;2022-08-01T11:54:51;26.20;5.20
7564;DHT22;3823;53.586;10.040;2022-08-01T11:57:22;26.30;4.40
7564;DHT22;3823;53.586;10.040;2022-08-01T11:59:54;26.30;4.80
7564;DHT22;3823;53.586;10.040;2022-08-01T12:02:30;26.30;3.70
7564;DHT22;3823;53.586;10.040;2022-08-01T12:05:06;26.20;4.40
7564;DHT22;3823;53.586;10.040;2022-08-01T12:07:34;26.30;5.20
7564;DHT22;3823;53.586;10.040;2022-08-01T12:10:13;26.40;3.90
7564;DHT22;3823;53.586;10.040;2022-08-01T12:12:47;26.40;3.90
7564;DHT22;3823;53.586;10.040;2022-08-01T12:15:17;26.50;4.40
7564;DHT22;3823;53.586;10.040;2022-08-01T12:17:46;26.50;4.00
7564;DHT22;3823;53.586;10.040;2022-08-01T12:20:15;26.50;3.20
7564;DHT22;3823;53.586;10.040;2022-08-01T12:22:41;26.40;3.30
7564;DHT22;3823;53.586;10.040;2022-08-01T12:25:12;26.60;3.90
7564;DHT22;3823;53.586;10.040;2022-08-01T12:27:39;26.60;3.60
7564;DHT22;3823;53.586;10.040;2022-08-01T12:30:07;26.60;1.00
7564;DHT22;3823;53.586;10.040;2022-08-01T12:32:35;26.50;1.00
7564;DHT22;3823;53.586;10.040;2022-08-01T12:35:07;26.50;2.30
7564;DHT22;3823;53.586;10.040;2022-08-01T12:37:43;26.40;2.00
7564;DHT22;3823;53.586;10.040;2022-08-01T12:40:17;26.30;1.80
7564;DHT22;3823;53.586;10.040;2022-08-01T12:42:46;26.20;2.50
7564;DHT22;3823;53.586;10.040;2022-08-01T12:45:20;25.90;3.50
7564;DHT22;3823;53.586;10.040;2022-08-01T12:47:46;26.00;3.30
7564;DHT22;3823;53.586;10.040;2022-08-01T12:50:16;25.90;4.10
7564;DHT22;3823;53.586;10.040;2022-08-01T12:52:42;26.00;3.80
7564;DHT22;3823;53.586;10.040;2022-08-01T12:55:25;26.00;4.20
7564;DHT22;3823;53.586;10.040;2022-08-01T12:58:08;25.90;3.20
7564;DHT22;3823;53.586;10.040;2022-08-01T13:00:34;25.90;3.80
7564;DHT22;3823;53.586;10.040;2022-08-01T13:03:04;26.10;4.70
7564;DHT22;3823;53.586;10.040;2022-08-01T13:05:49;26.20;3.40
7564;DHT22;3823;53.586;10.040;2022-08-01T13:08:21;26.00;3.50
7564;DHT22;3823;53.586;10.040;2022-08-01T13:10:47;25.90;3.70
7564;DHT22;3823;53.586;10.040;2022-08-01T13:13:15;25.80;3.10
7564;DHT22;3823;53.586;10.040;2022-08-01T13:15:42;25.70;3.40
7564;DHT22;3823;53.586;10.040;2022-08-01T13:18:29;25.60;3.60
7564;DHT22;3823;53.586;10.040;2022-08-01T13:21:21;25.50;3.50
7564;DHT22;3823;53.586;10.040;2022-08-01T13:24:12;25.60;3.40
7564;DHT22;3823;53.586;10.040;2022-08-01T13:29:07;25.60;2.60
7564;DHT22;3823;53.586;10.040;2022-08-01T13:31:34;25.50;3.10
7564;DHT22;3823;53.586;10.040;2022-08-01T13:34:00;25.40;3.10
7564;DHT22;3823;53.586;10.040;2022-08-01T13:36:25;25.40;3.70
7564;DHT22;3823;53.586;10.040;2022-08-01T13:38:54;25.50;3.50
7564;DHT22;3823;53.586;10.040;2022-08-01T13:41:38;25.50;3.10
7564;DHT22;3823;53.586;10.040;2022-08-01T13:44:04;25.40;3.30
7564;DHT22;3823;53.586;10.040;2022-08-01T13:46:30;25.20;3.40
7564;DHT22;3823;53.586;10.040;2022-08-01T13:48:55;25.10;3.60
7564;DHT22;3823;53.586;10.040;2022-08-01T13:51:21;25.10;3.50
7564;DHT22;3823;53.586;10.040;2022-08-01T13:53:47;25.00;4.20
7564;DHT22;3823;53.586;10.040;2022-08-01T13:56:12;25.00;2.80
7564;DHT22;3823;53.586;10.040;2022-08-01T13:58:38;25.10;2.70
7564;DHT22;3823;53.586;10.040;2022-08-01T14:01:03;25.10;1.90
7564;DHT22;3823;53.586;10.040;2022-08-01T14:03:29;25.10;1.80
7564;DHT22;3823;53.586;10.040;2022-08-01T14:05:56;25.10;2.30
7564;DHT22;3823;53.586;10.040;2022-08-01T14:08:22;25.10;2.60
7564;DHT22;3823;53.586;10.040;2022-08-01T14:10:47;25.00;2.70
7564;DHT22;3823;53.586;10.040;2022-08-01T14:13:13;25.10;2.10
7564;DHT22;3823;53.586;10.040;2022-08-01T14:15:39;25.00;2.60
7564;DHT22;3823;53.586;10.040;2022-08-01T14:18:08;24.80;2.10
7564;DHT22;3823;53.586;10.040;2022-08-01T14:20:34;24.70;2.00
7564;DHT22;3823;53.586;10.040;2022-08-01T14:23:00;24.70;1.80
7564;DHT22;3823;53.586;10.040;2022-08-01T14:25:26;24.80;1.10
7564;DHT22;3823;53.586;10.040;2022-08-01T14:27:51;24.70;1.40
7564;DHT22;3823;53.586;10.040;2022-08-01T14:30:17;24.70;1.40
7564;DHT22;3823;53.586;10.040;2022-08-01T14:32:42;24.50;2.10
7564;DHT22;3823;53.586;10.040;2022-08-01T14:35:08;24.60;1.80
7564;DHT22;3823;53.586;10.040;2022-08-01T14:37:34;24.70;2.30
7564;DHT22;3823;53.586;10.040;2022-08-01T14:40:00;24.60;2.00
7564;DHT22;3823;53.586;10.040;2022-08-01T14:42:30;24.50;2.30
7564;DHT22;3823;53.586;10.040;2022-08-01T14:44:55;24.40;1.80
7564;DHT22;3823;53.586;10.040;2022-08-01T14:47:21;24.30;1.40
7564;DHT22;3823;53.586;10.040;2022-08-01T14:49:46;24.30;1.60
7564;DHT22;3823;53.586;10.040;2022-08-01T14:52:12;24.20;1.50
7564;DHT22;3823;53.586;10.040;2022-08-01T14:54:37;24.00;2.00
7564;DHT22;3823;53.586;10.040;2022-08-01T14:57:03;24.00;2.80
7564;DHT22;3823;53.586;10.040;2022-08-01T14:59:29;23.80;2.80
7564;DHT22;3823;53.586;10.040;2022-08-01T15:01:54;23.80;3.50
7564;DHT22;3823;53.586;10.040;2022-08-01T15:04:20;23.70;4.10
7564;DHT22;3823;53.586;10.040;2022-08-01T15:06:45;23.70;4.50
7564;DHT22;3823;53.586;10.040;2022-08-01T15:09:11;23.90;5.10
7564;DHT22;3823;53.586;10.040;2022-08-01T15:11:37;23.90;4.40
7564;DHT22;3823;53.586;10.040;2022-08-01T15:14:03;23.90;3.90
7564;DHT22;3823;53.586;10.040;2022-08-01T15:16:47;23.80;4.00
7564;DHT22;3823;53.586;10.040;2022-08-01T15:19:14;23.70;4.90
7564;DHT22;3823;53.586;10.040;2022-08-01T15:21:39;23.70;4.80
7564;DHT22;3823;53.586;10.040;2022-08-01T15:24:05;23.70;4.80
7564;DHT22;3823;53.586;10.040;2022-08-01T15:26:31;23.70;4.20
7564;DHT22;3823;53.586;10.040;2022-08-01T15:28:57;23.50;4.30
7564;DHT22;3823;53.586;10.040;2022-08-01T15:31:22;23.30;4.80
7564;DHT22;3823;53.586;10.040;2022-08-01T15:33:48;23.30;5.10
7564;DHT22;3823;53.586;10.040;2022-08-01T15:36:14;23.30;5.40
7564;DHT22;3823;53.586;10.040;2022-08-01T15:38:39;23.30;5.40
7564;DHT22;3823;53.586;10.040;2022-08-01T15:41:05;23.40;5.10
7564;DHT22;3823;53.586;10.040;2022-08-01T15:43:31;23.30;5.40
7564;DHT22;3823;53.586;10.040;2022-08-01T15:45:57;23.30;5.90
7564;DHT22;3823;53.586;10.040;2022-08-01T15:48:23;23.30;5.50
7564;DHT22;3823;53.586;10.040;2022-08-01T15:50:49;23.40;6.10
7564;DHT22;3823;53.586;10.040;2022-08-01T15:53:15;23.50;5.40
7564;DHT22;3823;53.586;10.040;2022-08-01T15:55:41;23.50;5.80
7564;DHT22;3823;53.586;10.040;2022-08-01T15:58:07;23.40;4.90
7564;DHT22;3823;53.586;10.040;2022-08-01T16:00:33;23.30;5.30
7564;DHT22;3823;53.586;10.040;2022-08-01T16:02:59;23.30;6.40
7564;DHT22;3823;53.586;10.040;2022-08-01T16:05:25;23.30;5.60
7564;DHT22;3823;53.586;10.040;2022-08-01T16:07:50;23.20;6.50
7564;DHT22;3823;53.586;10.040;2022-08-01T16:10:16;23.20;6.30
7564;DHT22;3823;53.586;10.040;2022-08-01T16:12:42;23.20;6.50
7564;DHT22;3823;53.586;10.040;2022-08-01T16:15:08;23.30;7.30
7564;DHT22;3823;53.586;10.040;2022-08-01T16:17:34;23.30;6.20
7564;DHT22;3823;53.586;10.040;2022-08-01T16:19:59;23.30;6.20
7564;DHT22;3823;53.586;10.040;2022-08-01T16:22:25;23.20;6.60
7564;DHT22;3823;53.586;10.040;2022-08-01T16:24:51;23.20;6.50
7564;DHT22;3823;53.586;10.040;2022-08-01T16:27:16;23.30;6.90
7564;DHT22;3823;53.586;10.040;2022-08-01T16:29:42;23.20;6.70
7564;DHT22;3823;53.586;10.040;2022-08-01T16:32:08;23.10;5.80
7564;DHT22;3823;53.586;10.040;2022-08-01T16:34:34;23.00;6.00
7564;DHT22;3823;53.586;10.040;2022-08-01T16:36:59;22.90;6.80